sensor_id;sensor_type;location;lat;lon;timestamp;temperature;humidity
44121;DHT22;29783;52.504;13.478;2023-11-21T00:00:00;7.80;96.00
44121;DHT22;29783;52.504;13.478;2023-11-21T00:02:26;7.80;96.10
44121;DHT22;29783;52.504;13.478;2023-11-21T00:04:52;7.80;96.10
44121;DHT22;29783;52.504;13.478;2023-11-21T00:07:18;7.70;96.10
44121;DHT22;29783;52.504;13.478;2023-11-21T00:09:43;7.60;96.10
44121;DHT22;29783;52.504;13.478;2023-11-21T00:12:09;7.60;96.10
44121;DHT22;29783;52.504;13.478;2023-11-21T00:14:38;7.50;96.10
44121;DHT22;29783;52.504;13.478;2023-11-21T00:17:04;7.50;96.10
44121;DHT22;29783;52.504;13.478;2023-11-21T00:19:31;7.40;96.10
44121;DHT22;29783;52.504;13.478;2023-11-21T00:21:57;7.40;96.10
44121;DHT22;29783;52.504;13.478;2023-11-21T00:24:23;7.30;96.10
44121;DHT22;29783;52.504;13.478;2023-11-21T00:26:50;7.30;96.00
44121;DHT22;29783;52.504;13.478;2023-11-21T00:29:16;7.20;96.00
44121;DHT22;29783;52.504;13.478;2023-11-21T00:31:43;7.30;95.90
44121;DHT22;29783;52.504;13.478;2023-11-21T00:34:11;7.20;95.90
44121;DHT22;29783;52.504;13.478;2023-11-21T00:36:37;7.20;95.90
44121;DHT22;29783;52.504;13.478;2023-11-21T00:39:03;7.10;95.80
44121;DHT22;29783;52.504;13.478;2023-11-21T00:41:31;7.10;95.80
44121;DHT22;29783;52.504;13.478;2023-11-21T00:43:57;7.10;95.90
44121;DHT22;29783;52.504;13.478;2023-11-21T00:46:22;7.00;95.80
44121;DHT22;29783;52.504;13.478;2023-11-21T00:48:49;7.00;95.80
44121;DHT22;29783;52.504;13.478;2023-11-21T00:51:15;7.00;95.80
44121;DHT22;29783;52.504;13.478;2023-11-21T00:53:40;6.90;95.60
44121;DHT22;29783;52.504;13.478;2023-11-21T00:56:06;6.90;95.60
44121;DHT22;29783;52.504;13.478;2023-11-21T00:58:34;6.90;95.60
44121;DHT22;29783;52.504;13.478;2023-11-21T01:00:59;6.80;95.50
44121;DHT22;29783;52.504;13.478;2023-11-21T01:03:25;6.80;95.60
44121;DHT22;29783;52.504;13.478;2023-11-21T01:05:50;6.80;95.50
44121;DHT22;29783;52.504;13.478;2023-11-21T01:08:16;6.80;95.50
44121;DHT22;29783;52.504;13.478;2023-11-21T01:10:41;6.80;95.60
44121;DHT22;29783;52.504;13.478;2023-11-21T01:13:07;6.70;95.40
44121;DHT22;29783;52.504;13.478;2023-11-21T01:15:36;6.60;95.10
44121;DHT22;29783;52.504;13.478;2023-11-21T01:18:01;6.50;94.90
44121;DHT22;29783;52.504;13.478;2023-11-21T01:20:27;6.50;94.90
44121;DHT22;29783;52.504;13.478;2023-11-21T01:22:52;6.50;94.90
44121;DHT22;29783;52.504;13.478;2023-11-21T01:25:19;6.50;94.90
44121;DHT22;29783;52.504;13.478;2023-11-21T01:27:46;6.40;95.00
44121;DHT22;29783;52.504;13.478;2023-11-21T01:30:12;6.50;95.10
44121;DHT22;29783;52.504;13.478;2023-11-21T01:32:38;6.40;95.10
44121;DHT22;29783;52.504;13.478;2023-11-21T01:35:05;6.40;95.00
44121;DHT22;29783;52.504;13.478;2023-11-21T01:37:32;6.30;95.00
44121;DHT22;29783;52.504;13.478;2023-11-21T01:39:58;6.30;95.00
44121;DHT22;29783;52.504;13.478;2023-11-21T01:42:24;6.40;95.10
44121;DHT22;29783;52.504;13.478;2023-11-21T01:44:50;6.30;95.10
44121;DHT22;29783;52.504;13.478;2023-11-21T01:47:16;6.30;95.20
44121;DHT22;29783;52.504;13.478;2023-11-21T01:49:45;6.30;95.20
44121;DHT22;29783;52.504;13.478;2023-11-21T01:52:12;6.30;95.20
44121;DHT22;29783;52.504;13.478;2023-11-21T01:54:38;6.30;95.30
44121;DHT22;29783;52.504;13.478;2023-11-21T01:57:05;6.30;95.20
44121;DHT22;29783;52.504;13.478;2023-11-21T01:59:36;6.30;95.20
44121;DHT22;29783;52.504;13.478;2023-11-21T02:02:05;6.20;95.10
44121;DHT22;29783;52.504;13.478;2023-11-21T02:04:35;6.20;95.10
44121;DHT22;29783;52.504;13.478;2023-11-21T02:07:02;6.20;94.90
44121;DHT22;29783;52.504;13.478;2023-11-21T02:09:31;6.20;94.90
44121;DHT22;29783;52.504;13.478;2023-11-21T02:11:58;6.20;94.80
44121;DHT22;29783;52.504;13.478;2023-11-21T02:14:25;6.10;94.60
44121;DHT22;29783;52.504;13.478;2023-11-21T02:16:52;6.10;94.50
44121;DHT22;29783;52.504;13.478;2023-11-21T02:19:20;6.10;94.60
44121;DHT22;29783;52.504;13.478;2023-11-21T02:21:49;6.10;94.50
44121;DHT22;29783;52.504;13.478;2023-11-21T02:24:20;6.10;94.20
44121;DHT22;29783;52.504;13.478;2023-11-21T02:26:45;6.00;94.20
44121;DHT22;29783;52.504;13.478;2023-11-21T02:29:11;6.00;94.20
44121;DHT22;29783;52.504;13.478;2023-11-21T02:31:38;6.00;94.20
44121;DHT22;29783;52.504;13.478;2023-11-21T02:34:16;6.10;94.20
44121;DHT22;29783;52.504;13.478;2023-11-21T02:36:43;6.00;94.10
44121;DHT22;29783;52.504;13.478;2023-11-21T02:39:10;6.10;94.00
44121;DHT22;29783;52.504;13.478;2023-11-21T02:41:37;6.10;93.90
44121;DHT22;29783;52.504;13.478;2023-11-21T02:44:03;6.10;93.80
44121;DHT22;29783;52.504;13.478;2023-11-21T02:46:29;6.10;93.70
44121;DHT22;29783;52.504;13.478;2023-11-21T02:48:54;6.10;93.80
44121;DHT22;29783;52.504;13.478;2023-11-21T02:51:20;6.10;93.70
44121;DHT22;29783;52.504;13.478;2023-11-21T02:53:46;6.10;93.70
44121;DHT22;29783;52.504;13.478;2023-11-21T02:56:12;6.10;93.90
44121;DHT22;29783;52.504;13.478;2023-11-21T02:58:41;6.00;93.60
44121;DHT22;29783;52.504;13.478;2023-11-21T03:01:06;6.00;93.80
44121;DHT22;29783;52.504;13.478;2023-11-21T03:03:33;6.00;93.90
44121;DHT22;29783;52.504;13.478;2023-11-21T03:05:59;6.10;93.80
44121;DHT22;29783;52.504;13.478;2023-11-21T03:08:24;6.10;93.40
44121;DHT22;29783;52.504;13.478;2023-11-21T03:10:50;6.00;93.40
44121;DHT22;29783;52.504;13.478;2023-11-21T03:13:15;6.00;93.30
44121;DHT22;29783;52.504;13.478;2023-11-21T03:15:41;6.00;93.10
44121;DHT22;29783;52.504;13.478;2023-11-21T03:18:08;5.90;92.90
44121;DHT22;29783;52.504;13.478;2023-11-21T03:20:33;5.80;92.90
44121;DHT22;29783;52.504;13.478;2023-11-21T03:23:00;5.80;93.00
44121;DHT22;29783;52.504;13.478;2023-11-21T03:25:26;5.80;93.30
44121;DHT22;29783;52.504;13.478;2023-11-21T03:27:52;5.80;93.00
44121;DHT22;29783;52.504;13.478;2023-11-21T03:30:18;5.80;93.00
44121;DHT22;29783;52.504;13.478;2023-11-21T03:32:44;5.80;93.20
44121;DHT22;29783;52.504;13.478;2023-11-21T03:35:10;5.90;93.00
44121;DHT22;29783;52.504;13.478;2023-11-21T03:37:36;5.80;92.70
44121;DHT22;29783;52.504;13.478;2023-11-21T03:40:03;5.80;92.50
44121;DHT22;29783;52.504;13.478;2023-11-21T03:42:29;5.80;92.60
44121;DHT22;29783;52.504;13.478;2023-11-21T03:44:55;5.80;92.60
44121;DHT22;29783;52.504;13.478;2023-11-21T03:47:21;5.80;92.40
44121;DHT22;29783;52.504;13.478;2023-11-21T03:49:47;5.80;92.40
44121;DHT22;29783;52.504;13.478;2023-11-21T03:52:12;5.70;92.40
44121;DHT22;29783;52.504;13.478;2023-11-21T03:54:38;5.80;92.50
44121;DHT22;29783;52.504;13.478;2023-11-21T03:57:04;5.80;92.30
44121;DHT22;29783;52.504;13.478;2023-11-21T03:59:29;5.80;91.90
44121;DHT22;29783;52.504;13.478;2023-11-21T04:01:56;5.80;91.50
44121;DHT22;29783;52.504;13.478;2023-11-21T04:04:22;5.80;91.30
44121;DHT22;29783;52.504;13.478;2023-11-21T04:06:48;5.80;91.40
44121;DHT22;29783;52.504;13.478;2023-11-21T04:09:13;5.70;91.40
44121;DHT22;29783;52.504;13.478;2023-11-21T04:11:39;5.70;91.60
44121;DHT22;29783;52.504;13.478;2023-11-21T04:14:05;5.60;91.10
44121;DHT22;29783;52.504;13.478;2023-11-21T04:16:31;5.70;91.00
44121;DHT22;29783;52.504;13.478;2023-11-21T04:18:56;5.70;91.20
44121;DHT22;29783;52.504;13.478;2023-11-21T04:21:22;5.60;91.20
44121;DHT22;29783;52.504;13.478;2023-11-21T04:23:49;5.60;90.80
44121;DHT22;29783;52.504;13.478;2023-11-21T04:26:15;5.60;90.90
44121;DHT22;29783;52.504;13.478;2023-11-21T04:28:40;5.50;90.80
44121;DHT22;29783;52.504;13.478;2023-11-21T04:31:06;5.50;90.70
44121;DHT22;29783;52.504;13.478;2023-11-21T04:33:32;5.50;90.50
44121;DHT22;29783;52.504;13.478;2023-11-21T04:35:58;5.40;90.30
44121;DHT22;29783;52.504;13.478;2023-11-21T04:38:23;5.40;90.40
44121;DHT22;29783;52.504;13.478;2023-11-21T04:40:49;5.40;90.60
44121;DHT22;29783;52.504;13.478;2023-11-21T04:43:18;5.40;90.30
44121;DHT22;29783;52.504;13.478;2023-11-21T04:45:44;5.40;90.40
44121;DHT22;29783;52.504;13.478;2023-11-21T04:48:09;5.30;89.90
44121;DHT22;29783;52.504;13.478;2023-11-21T04:50:35;5.30;89.70
44121;DHT22;29783;52.504;13.478;2023-11-21T04:53:01;5.30;89.80
44121;DHT22;29783;52.504;13.478;2023-11-21T04:55:26;5.30;89.50
44121;DHT22;29783;52.504;13.478;2023-11-21T04:57:53;5.30;89.50
44121;DHT22;29783;52.504;13.478;2023-11-21T05:00:19;5.20;89.80
44121;DHT22;29783;52.504;13.478;2023-11-21T05:02:46;5.30;90.00
44121;DHT22;29783;52.504;13.478;2023-11-21T05:05:12;5.30;89.80
44121;DHT22;29783;52.504;13.478;2023-11-21T05:07:39;5.20;89.80
44121;DHT22;29783;52.504;13.478;2023-11-21T05:10:06;5.20;89.80
44121;DHT22;29783;52.504;13.478;2023-11-21T05:12:34;5.20;90.00
44121;DHT22;29783;52.504;13.478;2023-11-21T05:15:04;5.20;89.80
44121;DHT22;29783;52.504;13.478;2023-11-21T05:17:33;5.20;89.60
44121;DHT22;29783;52.504;13.478;2023-11-21T05:20:00;5.30;90.00
44121;DHT22;29783;52.504;13.478;2023-11-21T05:22:29;5.30;90.10
44121;DHT22;29783;52.504;13.478;2023-11-21T05:24:54;5.30;90.20
44121;DHT22;29783;52.504;13.478;2023-11-21T05:27:20;5.30;90.00
44121;DHT22;29783;52.504;13.478;2023-11-21T05:29:45;5.20;89.50
44121;DHT22;29783;52.504;13.478;2023-11-21T05:32:11;5.30;89.30
44121;DHT22;29783;52.504;13.478;2023-11-21T05:34:37;5.20;89.40
44121;DHT22;29783;52.504;13.478;2023-11-21T05:37:02;5.20;89.20
44121;DHT22;29783;52.504;13.478;2023-11-21T05:39:28;5.30;89.40
44121;DHT22;29783;52.504;13.478;2023-11-21T05:41:53;5.30;89.50
44121;DHT22;29783;52.504;13.478;2023-11-21T05:44:19;5.20;89.50
44121;DHT22;29783;52.504;13.478;2023-11-21T05:46:45;5.20;89.20
44121;DHT22;29783;52.504;13.478;2023-11-21T05:49:10;5.20;89.20
44121;DHT22;29783;52.504;13.478;2023-11-21T05:51:37;5.20;88.90
44121;DHT22;29783;52.504;13.478;2023-11-21T05:54:04;5.20;89.00
44121;DHT22;29783;52.504;13.478;2023-11-21T05:56:29;5.20;89.20
44121;DHT22;29783;52.504;13.478;2023-11-21T05:58:55;5.10;88.80
44121;DHT22;29783;52.504;13.478;2023-11-21T06:01:20;5.10;88.80
44121;DHT22;29783;52.504;13.478;2023-11-21T06:03:46;5.10;89.00
44121;DHT22;29783;52.504;13.478;2023-11-21T06:06:12;5.20;88.70
44121;DHT22;29783;52.504;13.478;2023-11-21T06:08:37;5.10;88.30
44121;DHT22;29783;52.504;13.478;2023-11-21T06:11:03;5.10;88.60
44121;DHT22;29783;52.504;13.478;2023-11-21T06:13:29;5.10;88.90
44121;DHT22;29783;52.504;13.478;2023-11-21T06:15:54;5.10;88.60
44121;DHT22;29783;52.504;13.478;2023-11-21T06:18:20;5.10;88.60
44121;DHT22;29783;52.504;13.478;2023-11-21T06:20:46;5.10;89.00
44121;DHT22;29783;52.504;13.478;2023-11-21T06:23:12;5.10;89.10
44121;DHT22;29783;52.504;13.478;2023-11-21T06:25:37;5.10;89.20
44121;DHT22;29783;52.504;13.478;2023-11-21T06:28:04;5.10;89.50
44121;DHT22;29783;52.504;13.478;2023-11-21T06:30:30;5.20;89.80
44121;DHT22;29783;52.504;13.478;2023-11-21T06:32:56;5.20;90.00
44121;DHT22;29783;52.504;13.478;2023-11-21T06:35:21;5.20;90.00
44121;DHT22;29783;52.504;13.478;2023-11-21T06:37:47;5.10;89.70
44121;DHT22;29783;52.504;13.478;2023-11-21T06:40:13;5.10;89.20
44121;DHT22;29783;52.504;13.478;2023-11-21T06:42:41;5.10;89.40
44121;DHT22;29783;52.504;13.478;2023-11-21T06:45:07;5.00;89.60
44121;DHT22;29783;52.504;13.478;2023-11-21T06:47:33;5.00;89.60
44121;DHT22;29783;52.504;13.478;2023-11-21T06:49:59;5.00;89.60
44121;DHT22;29783;52.504;13.478;2023-11-21T06:52:26;5.00;89.40
44121;DHT22;29783;52.504;13.478;2023-11-21T06:54:51;5.10;89.50
44121;DHT22;29783;52.504;13.478;2023-11-21T06:57:17;5.10;89.60
44121;DHT22;29783;52.504;13.478;2023-11-21T06:59:43;5.10;89.50
44121;DHT22;29783;52.504;13.478;2023-11-21T07:02:09;5.10;89.20
44121;DHT22;29783;52.504;13.478;2023-11-21T07:04:37;5.10;89.10
44121;DHT22;29783;52.504;13.478;2023-11-21T07:07:04;5.10;89.10
44121;DHT22;29783;52.504;13.478;2023-11-21T07:09:30;5.10;88.90
44121;DHT22;29783;52.504;13.478;2023-11-21T07:11:56;5.10;88.70
44121;DHT22;29783;52.504;13.478;2023-11-21T07:14:22;5.10;88.80
44121;DHT22;29783;52.504;13.478;2023-11-21T07:16:48;5.10;88.70
44121;DHT22;29783;52.504;13.478;2023-11-21T07:19:14;5.10;88.80
44121;DHT22;29783;52.504;13.478;2023-11-21T07:21:40;5.10;88.50
44121;DHT22;29783;52.504;13.478;2023-11-21T07:24:07;5.10;88.70
44121;DHT22;29783;52.504;13.478;2023-11-21T07:26:34;5.20;88.70
44121;DHT22;29783;52.504;13.478;2023-11-21T07:29:00;5.20;88.40
44121;DHT22;29783;52.504;13.478;2023-11-21T07:31:26;5.20;88.40
44121;DHT22;29783;52.504;13.478;2023-11-21T07:33:52;5.20;88.50
44121;DHT22;29783;52.504;13.478;2023-11-21T07:36:19;5.20;88.50
44121;DHT22;29783;52.504;13.478;2023-11-21T07:38:46;5.20;88.30
44121;DHT22;29783;52.504;13.478;2023-11-21T07:41:12;5.20;87.90
44121;DHT22;29783;52.504;13.478;2023-11-21T07:43:41;5.20;87.50
44121;DHT22;29783;52.504;13.478;2023-11-21T07:46:07;5.20;87.30
44121;DHT22;29783;52.504;13.478;2023-11-21T07:48:34;5.20;87.40
44121;DHT22;29783;52.504;13.478;2023-11-21T07:51:00;5.20;87.00
44121;DHT22;29783;52.504;13.478;2023-11-21T07:53:26;5.20;86.80
44121;DHT22;29783;52.504;13.478;2023-11-21T07:55:56;5.20;86.90
44121;DHT22;29783;52.504;13.478;2023-11-21T07:58:22;5.20;86.40
44121;DHT22;29783;52.504;13.478;2023-11-21T08:00:48;5.20;86.00
44121;DHT22;29783;52.504;13.478;2023-11-21T08:03:14;5.20;86.10
44121;DHT22;29783;52.504;13.478;2023-11-21T08:05:40;5.20;86.20
44121;DHT22;29783;52.504;13.478;2023-11-21T08:08:05;5.30;85.80
44121;DHT22;29783;52.504;13.478;2023-11-21T08:10:31;5.20;85.20
44121;DHT22;29783;52.504;13.478;2023-11-21T08:12:57;5.30;85.60
44121;DHT22;29783;52.504;13.478;2023-11-21T08:15:22;5.30;85.60
44121;DHT22;29783;52.504;13.478;2023-11-21T08:17:48;5.30;85.30
44121;DHT22;29783;52.504;13.478;2023-11-21T08:20:14;5.30;85.60
44121;DHT22;29783;52.504;13.478;2023-11-21T08:22:44;5.20;85.90
44121;DHT22;29783;52.504;13.478;2023-11-21T08:25:10;5.20;86.10
44121;DHT22;29783;52.504;13.478;2023-11-21T08:27:35;5.10;85.60
44121;DHT22;29783;52.504;13.478;2023-11-21T08:30:03;5.10;85.50
44121;DHT22;29783;52.504;13.478;2023-11-21T08:32:29;5.10;85.70
44121;DHT22;29783;52.504;13.478;2023-11-21T08:34:59;5.10;86.10
44121;DHT22;29783;52.504;13.478;2023-11-21T08:37:25;5.10;86.00
44121;DHT22;29783;52.504;13.478;2023-11-21T08:39:52;5.20;86.00
44121;DHT22;29783;52.504;13.478;2023-11-21T08:42:18;5.20;86.30
44121;DHT22;29783;52.504;13.478;2023-11-21T08:44:44;5.20;86.40
44121;DHT22;29783;52.504;13.478;2023-11-21T08:47:11;5.20;85.90
44121;DHT22;29783;52.504;13.478;2023-11-21T08:49:36;5.30;85.80
44121;DHT22;29783;52.504;13.478;2023-11-21T08:52:03;5.30;85.80
44121;DHT22;29783;52.504;13.478;2023-11-21T08:54:30;5.30;85.20
44121;DHT22;29783;52.504;13.478;2023-11-21T08:56:56;5.30;85.10
44121;DHT22;29783;52.504;13.478;2023-11-21T08:59:24;5.30;85.00
44121;DHT22;29783;52.504;13.478;2023-11-21T09:01:50;5.20;85.10
44121;DHT22;29783;52.504;13.478;2023-11-21T09:04:16;5.20;85.20
44121;DHT22;29783;52.504;13.478;2023-11-21T09:06:42;5.20;85.60
44121;DHT22;29783;52.504;13.478;2023-11-21T09:09:07;5.30;85.40
44121;DHT22;29783;52.504;13.478;2023-11-21T09:11:35;5.30;85.30
44121;DHT22;29783;52.504;13.478;2023-11-21T09:14:01;5.30;85.00
44121;DHT22;29783;52.504;13.478;2023-11-21T09:16:28;5.30;85.40
44121;DHT22;29783;52.504;13.478;2023-11-21T09:18:54;5.30;85.10
44121;DHT22;29783;52.504;13.478;2023-11-21T09:21:19;5.20;85.30
44121;DHT22;29783;52.504;13.478;2023-11-21T09:23:45;5.30;85.40
44121;DHT22;29783;52.504;13.478;2023-11-21T09:26:11;5.10;85.60
44121;DHT22;29783;52.504;13.478;2023-11-21T09:28:37;5.10;86.20
44121;DHT22;29783;52.504;13.478;2023-11-21T09:31:04;5.10;86.30
44121;DHT22;29783;52.504;13.478;2023-11-21T09:33:30;5.10;85.90
44121;DHT22;29783;52.504;13.478;2023-11-21T09:35:57;5.00;86.00
44121;DHT22;29783;52.504;13.478;2023-11-21T09:38:23;5.10;86.00
44121;DHT22;29783;52.504;13.478;2023-11-21T09:40:49;5.20;85.60
44121;DHT22;29783;52.504;13.478;2023-11-21T09:43:19;5.30;85.50
44121;DHT22;29783;52.504;13.478;2023-11-21T09:45:46;5.40;84.60
44121;DHT22;29783;52.504;13.478;2023-11-21T09:48:14;5.50;84.30
44121;DHT22;29783;52.504;13.478;2023-11-21T09:50:42;5.50;83.40
44121;DHT22;29783;52.504;13.478;2023-11-21T09:53:19;5.50;83.30
44121;DHT22;29783;52.504;13.478;2023-11-21T09:55:53;5.50;83.40
44121;DHT22;29783;52.504;13.478;2023-11-21T09:58:20;5.50;83.80
44121;DHT22;29783;52.504;13.478;2023-11-21T10:00:49;5.50;82.90
44121;DHT22;29783;52.504;13.478;2023-11-21T10:03:15;5.40;83.30
44121;DHT22;29783;52.504;13.478;2023-11-21T10:05:45;5.30;83.60
44121;DHT22;29783;52.504;13.478;2023-11-21T10:08:12;5.30;83.80
44121;DHT22;29783;52.504;13.478;2023-11-21T10:10:44;5.30;84.00
44121;DHT22;29783;52.504;13.478;2023-11-21T10:13:12;5.40;83.80
44121;DHT22;29783;52.504;13.478;2023-11-21T10:15:42;5.50;83.20
44121;DHT22;29783;52.504;13.478;2023-11-21T10:18:14;5.40;82.90
44121;DHT22;29783;52.504;13.478;2023-11-21T10:20:41;5.30;83.20
44121;DHT22;29783;52.504;13.478;2023-11-21T10:23:07;5.40;83.20
44121;DHT22;29783;52.504;13.478;2023-11-21T10:25:37;5.50;83.00
44121;DHT22;29783;52.504;13.478;2023-11-21T10:28:03;5.50;83.30
44121;DHT22;29783;52.504;13.478;2023-11-21T10:30:34;5.60;82.70
44121;DHT22;29783;52.504;13.478;2023-11-21T10:33:03;5.50;82.60
44121;DHT22;29783;52.504;13.478;2023-11-21T10:35:39;5.30;83.00
44121;DHT22;29783;52.504;13.478;2023-11-21T10:38:07;5.30;83.60
44121;DHT22;29783;52.504;13.478;2023-11-21T10:40:40;5.40;83.70
44121;DHT22;29783;52.504;13.478;2023-11-21T10:43:07;5.30;83.60
44121;DHT22;29783;52.504;13.478;2023-11-21T10:45:39;5.30;83.50
44121;DHT22;29783;52.504;13.478;2023-11-21T10:48:06;5.30;83.90
44121;DHT22;29783;52.504;13.478;2023-11-21T10:50:34;5.30;83.60
44121;DHT22;29783;52.504;13.478;2023-11-21T10:53:02;5.30;83.90
44121;DHT22;29783;52.504;13.478;2023-11-21T10:55:29;5.30;83.90
44121;DHT22;29783;52.504;13.478;2023-11-21T10:57:59;5.20;84.00
44121;DHT22;29783;52.504;13.478;2023-11-21T11:00:26;5.10;84.30
44121;DHT22;29783;52.504;13.478;2023-11-21T11:02:53;5.10;84.40
44121;DHT22;29783;52.504;13.478;2023-11-21T11:05:24;5.10;84.50
44121;DHT22;29783;52.504;13.478;2023-11-21T11:08:03;5.20;84.60
44121;DHT22;29783;52.504;13.478;2023-11-21T11:10:29;5.30;84.40
44121;DHT22;29783;52.504;13.478;2023-11-21T11:12:56;5.10;84.40
44121;DHT22;29783;52.504;13.478;2023-11-21T11:15:28;5.10;84.60
44121;DHT22;29783;52.504;13.478;2023-11-21T11:17:54;5.00;85.20
44121;DHT22;29783;52.504;13.478;2023-11-21T11:20:24;5.00;85.00
44121;DHT22;29783;52.504;13.478;2023-11-21T11:26:16;5.00;85.50
44121;DHT22;29783;52.504;13.478;2023-11-21T11:28:54;5.00;85.20
44121;DHT22;29783;52.504;13.478;2023-11-21T11:32:00;4.80;85.80
44121;DHT22;29783;52.504;13.478;2023-11-21T11:34:35;4.80;86.50
44121;DHT22;29783;52.504;13.478;2023-11-21T11:37:04;4.80;86.70
44121;DHT22;29783;52.504;13.478;2023-11-21T11:39:38;4.80;86.90
44121;DHT22;29783;52.504;13.478;2023-11-21T11:42:08;4.80;86.90
44121;DHT22;29783;52.504;13.478;2023-11-21T11:47:16;4.70;87.10
44121;DHT22;29783;52.504;13.478;2023-11-21T11:50:05;4.70;87.60
44121;DHT22;29783;52.504;13.478;2023-11-21T11:52:52;4.80;87.70
44121;DHT22;29783;52.504;13.478;2023-11-21T11:55:24;4.80;87.40
44121;DHT22;29783;52.504;13.478;2023-11-21T11:57:54;4.70;86.40
44121;DHT22;29783;52.504;13.478;2023-11-21T12:02:54;4.70;86.00
44121;DHT22;29783;52.504;13.478;2023-11-21T12:05:21;4.70;86.20
44121;DHT22;29783;52.504;13.478;2023-11-21T12:07:57;4.70;86.10
44121;DHT22;29783;52.504;13.478;2023-11-21T12:10:25;4.60;86.00
44121;DHT22;29783;52.504;13.478;2023-11-21T12:12:59;4.60;85.70
44121;DHT22;29783;52.504;13.478;2023-11-21T12:15:25;4.60;85.80
44121;DHT22;29783;52.504;13.478;2023-11-21T12:17:51;4.60;86.00
44121;DHT22;29783;52.504;13.478;2023-11-21T12:20:22;4.60;85.90
44121;DHT22;29783;52.504;13.478;2023-11-21T12:22:51;4.60;86.10
44121;DHT22;29783;52.504;13.478;2023-11-21T12:25:24;4.70;85.80
44121;DHT22;29783;52.504;13.478;2023-11-21T12:27:54;4.70;85.70
44121;DHT22;29783;52.504;13.478;2023-11-21T12:30:22;4.60;86.10
44121;DHT22;29783;52.504;13.478;2023-11-21T12:32:49;4.60;86.70
44121;DHT22;29783;52.504;13.478;2023-11-21T12:35:20;4.60;87.30
44121;DHT22;29783;52.504;13.478;2023-11-21T12:37:47;4.60;87.60
44121;DHT22;29783;52.504;13.478;2023-11-21T12:40:14;4.60;88.10
44121;DHT22;29783;52.504;13.478;2023-11-21T12:42:46;4.50;88.50
44121;DHT22;29783;52.504;13.478;2023-11-21T12:47:50;4.60;88.90
44121;DHT22;29783;52.504;13.478;2023-11-21T12:50:22;4.80;88.90
44121;DHT22;29783;52.504;13.478;2023-11-21T12:52:50;4.80;88.60
44121;DHT22;29783;52.504;13.478;2023-11-21T12:55:21;4.80;88.00
44121;DHT22;29783;52.504;13.478;2023-11-21T12:57:53;4.80;87.30
44121;DHT22;29783;52.504;13.478;2023-11-21T13:00:31;4.70;87.10
44121;DHT22;29783;52.504;13.478;2023-11-21T13:02:58;4.70;87.50
44121;DHT22;29783;52.504;13.478;2023-11-21T13:05:33;4.70;87.70
44121;DHT22;29783;52.504;13.478;2023-11-21T13:08:03;4.70;87.60
44121;DHT22;29783;52.504;13.478;2023-11-21T13:10:34;4.70;87.30
44121;DHT22;29783;52.504;13.478;2023-11-21T13:13:03;4.70;86.90
44121;DHT22;29783;52.504;13.478;2023-11-21T13:15:31;4.60;87.20
44121;DHT22;29783;52.504;13.478;2023-11-21T13:17:58;4.50;87.60
44121;DHT22;29783;52.504;13.478;2023-11-21T13:20:27;4.50;88.20
44121;DHT22;29783;52.504;13.478;2023-11-21T13:22:57;4.50;88.10
44121;DHT22;29783;52.504;13.478;2023-11-21T13:25:24;4.50;88.30
44121;DHT22;29783;52.504;13.478;2023-11-21T13:27:56;4.50;88.20
44121;DHT22;29783;52.504;13.478;2023-11-21T13:30:23;4.40;88.10
44121;DHT22;29783;52.504;13.478;2023-11-21T13:32:53;4.40;87.30
44121;DHT22;29783;52.504;13.478;2023-11-21T13:35:23;4.40;87.00
44121;DHT22;29783;52.504;13.478;2023-11-21T13:38:04;4.30;86.70
44121;DHT22;29783;52.504;13.478;2023-11-21T13:40:32;4.30;86.60
44121;DHT22;29783;52.504;13.478;2023-11-21T13:42:59;4.30;86.20
44121;DHT22;29783;52.504;13.478;2023-11-21T13:45:29;4.20;86.10
44121;DHT22;29783;52.504;13.478;2023-11-21T13:47:56;4.20;86.30
44121;DHT22;29783;52.504;13.478;2023-11-21T13:50:25;4.20;86.10
44121;DHT22;29783;52.504;13.478;2023-11-21T13:52:58;4.10;86.20
44121;DHT22;29783;52.504;13.478;2023-11-21T13:55:27;4.10;86.10
44121;DHT22;29783;52.504;13.478;2023-11-21T13:57:52;4.20;86.50
44121;DHT22;29783;52.504;13.478;2023-11-21T14:00:18;4.10;85.60
44121;DHT22;29783;52.504;13.478;2023-11-21T14:03:07;4.00;85.80
44121;DHT22;29783;52.504;13.478;2023-11-21T14:05:43;4.00;86.30
44121;DHT22;29783;52.504;13.478;2023-11-21T14:08:10;3.80;86.60
44121;DHT22;29783;52.504;13.478;2023-11-21T14:10:37;3.80;86.70
44121;DHT22;29783;52.504;13.478;2023-11-21T14:13:09;3.90;87.00
44121;DHT22;29783;52.504;13.478;2023-11-21T14:15:39;3.80;86.70
44121;DHT22;29783;52.504;13.478;2023-11-21T14:18:08;3.80;86.70
44121;DHT22;29783;52.504;13.478;2023-11-21T14:20:40;3.70;87.00
44121;DHT22;29783;52.504;13.478;2023-11-21T14:23:06;3.70;87.40
44121;DHT22;29783;52.504;13.478;2023-11-21T14:25:36;3.70;87.50
44121;DHT22;29783;52.504;13.478;2023-11-21T14:28:05;3.70;87.30
44121;DHT22;29783;52.504;13.478;2023-11-21T14:30:39;3.60;87.20
44121;DHT22;29783;52.504;13.478;2023-11-21T14:33:06;3.50;87.70
44121;DHT22;29783;52.504;13.478;2023-11-21T14:35:34;3.60;87.90
44121;DHT22;29783;52.504;13.478;2023-11-21T14:38:00;3.50;87.00
44121;DHT22;29783;52.504;13.478;2023-11-21T14:40:26;3.40;87.40
44121;DHT22;29783;52.504;13.478;2023-11-21T14:42:56;3.30;87.90
44121;DHT22;29783;52.504;13.478;2023-11-21T14:45:22;3.30;88.60
44121;DHT22;29783;52.504;13.478;2023-11-21T14:47:51;3.30;88.80
44121;DHT22;29783;52.504;13.478;2023-11-21T14:50:43;3.30;88.60
44121;DHT22;29783;52.504;13.478;2023-11-21T14:53:35;3.30;88.20
44121;DHT22;29783;52.504;13.478;2023-11-21T14:56:21;3.30;87.90
44121;DHT22;29783;52.504;13.478;2023-11-21T14:58:57;3.20;87.60
44121;DHT22;29783;52.504;13.478;2023-11-21T15:01:26;3.10;88.10
44121;DHT22;29783;52.504;13.478;2023-11-21T15:04:19;3.10;88.30
44121;DHT22;29783;52.504;13.478;2023-11-21T15:07:05;3.10;87.90
44121;DHT22;29783;52.504;13.478;2023-11-21T15:09:30;3.10;88.00
44121;DHT22;29783;52.504;13.478;2023-11-21T15:12:01;3.00;88.00
44121;DHT22;29783;52.504;13.478;2023-11-21T15:14:47;3.00;88.20
44121;DHT22;29783;52.504;13.478;2023-11-21T15:17:15;3.00;88.10
44121;DHT22;29783;52.504;13.478;2023-11-21T15:19:48;3.00;88.00
44121;DHT22;29783;52.504;13.478;2023-11-21T15:22:13;3.00;87.80
44121;DHT22;29783;52.504;13.478;2023-11-21T15:24:42;3.00;87.40
44121;DHT22;29783;52.504;13.478;2023-11-21T15:27:10;2.90;87.50
44121;DHT22;29783;52.504;13.478;2023-11-21T15:29:36;2.90;87.80
44121;DHT22;29783;52.504;13.478;2023-11-21T15:32:02;3.00;87.30
44121;DHT22;29783;52.504;13.478;2023-11-21T15:34:28;3.00;87.30
44121;DHT22;29783;52.504;13.478;2023-11-21T15:36:55;3.00;86.90
44121;DHT22;29783;52.504;13.478;2023-11-21T15:39:20;3.00;86.50
44121;DHT22;29783;52.504;13.478;2023-11-21T15:41:54;2.90;86.30
44121;DHT22;29783;52.504;13.478;2023-11-21T15:44:19;3.00;86.30